Time;durP1;ratioP1;P1;durP2;ratioP2;P2;SDS_P1;SDS_P2;PMS_P1;PMS_P2;Temp;Humidity;BMP_temperature;BMP_pressure;BME280_temperature;BME280_humidity;BME280_pressure;Samples;Min_cycle;Max_cycle;Signal;HPM_P1;HPM_P2
2023/05/20 00:00:12;;;;;;;13.10;10.90;;;9.40;99.90;;;;;;4970923;28;20097;-80
2023/05/20 00:02:41;;;;;;;16.77;11.60;;;9.20;99.90;;;;;;4972645;28;20049;-80
2023/05/20 00:05:19;;;;;;;13.52;10.80;;;9.20;99.90;;;;;;4978520;28;20254;-80
2023/05/20 00:07:59;;;;;;;12.90;9.93;;;9.20;99.90;;;;;;4967634;28;20081;-79
2023/05/20 00:10:28;;;;;;;12.93;10.73;;;9.20;99.90;;;;;;4981885;28;20050;-80
2023/05/20 00:12:57;;;;;;;17.20;11.05;;;9.20;99.90;;;;;;4966974;28;20046;-80
2023/05/20 00:15:44;;;;;;;15.65;11.00;;;9.30;99.90;;;;;;4971554;28;20057;-80
2023/05/20 00:18:19;;;;;;;15.00;11.32;;;9.20;99.90;;;;;;4968341;28;20034;-80
2023/05/20 00:20:48;;;;;;;16.00;12.05;;;9.30;99.90;;;;;;4967278;28;20497;-80
2023/05/20 00:23:21;;;;;;;14.15;11.35;;;9.20;99.90;;;;;;4969189;28;20044;-80
2023/05/20 00:25:51;;;;;;;13.15;10.45;;;9.20;99.90;;;;;;4966479;28;20042;-80
2023/05/20 00:28:29;;;;;;;13.45;11.85;;;9.10;99.90;;;;;;4981907;28;20049;-80
2023/05/20 00:31:09;;;;;;;15.98;11.75;;;9.10;99.90;;;;;;4964295;28;20058;-80
2023/05/20 00:33:46;;;;;;;13.30;11.50;;;9.00;99.90;;;;;;4963638;28;20045;-80
2023/05/20 00:36:16;;;;;;;16.80;12.85;;;9.00;99.90;;;;;;4948292;28;20046;-80
2023/05/20 00:38:57;;;;;;;14.63;11.52;;;9.00;99.90;;;;;;4951262;28;20057;-80
2023/05/20 00:41:29;;;;;;;14.93;10.98;;;9.00;99.90;;;;;;4972186;28;20043;-79
2023/05/20 00:44:00;;;;;;;15.35;11.80;;;9.10;99.90;;;;;;4972674;28;20069;-80
2023/05/20 00:46:29;;;;;;;17.75;12.20;;;9.00;99.90;;;;;;4972719;28;20117;-80
2023/05/20 00:48:58;;;;;;;15.82;11.95;;;9.00;99.90;;;;;;4982528;28;20046;-80
2023/05/20 00:51:39;;;;;;;16.02;11.80;;;9.00;99.90;;;;;;4992092;28;20034;-80
2023/05/20 00:54:21;;;;;;;14.32;11.73;;;9.00;99.90;;;;;;4946821;28;20061;-80
2023/05/20 00:56:53;;;;;;;11.90;10.63;;;9.00;99.90;;;;;;4969416;28;20047;-80
2023/05/20 00:59:32;;;;;;;14.88;11.88;;;9.00;99.90;;;;;;4969895;28;20044;-80
2023/05/20 01:02:00;;;;;;;17.60;11.88;;;9.00;99.90;;;;;;4974284;28;20043;-80
2023/05/20 01:04:45;;;;;;;17.90;12.10;;;9.00;99.90;;;;;;4962169;28;20072;-80
2023/05/20 01:07:15;;;;;;;15.93;11.57;;;8.90;99.90;;;;;;4948497;28;20421;-80
2023/05/20 01:09:44;;;;;;;14.50;12.50;;;8.80;99.90;;;;;;4963375;28;20409;-80
2023/05/20 01:12:37;;;;;;;15.93;12.50;;;8.80;99.90;;;;;;4966526;28;20081;-80
2023/05/20 01:15:18;;;;;;;13.63;12.00;;;8.70;99.90;;;;;;4981231;28;20058;-80
2023/05/20 01:17:51;;;;;;;15.70;13.95;;;8.70;99.90;;;;;;4963946;28;20047;-80
2023/05/20 01:20:47;;;;;;;16.27;13.52;;;8.60;99.90;;;;;;4961466;28;20386;-80
2023/05/20 01:23:40;;;;;;;15.35;12.77;;;8.60;99.90;;;;;;4980935;28;20041;-80
2023/05/20 01:26:20;;;;;;;14.20;11.80;;;8.50;99.90;;;;;;4982361;28;20061;-80
2023/05/20 01:28:49;;;;;;;15.23;13.00;;;8.70;99.90;;;;;;4979518;28;20034;-80
2023/05/20 01:31:25;;;;;;;14.75;12.70;;;8.80;99.90;;;;;;4972309;28;20151;-80
2023/05/20 01:33:57;;;;;;;14.43;11.38;;;8.90;99.90;;;;;;4979041;28;20054;-80
2023/05/20 01:36:25;;;;;;;16.42;13.25;;;9.00;99.90;;;;;;4974047;28;20127;-80
2023/05/20 01:39:07;;;;;;;14.40;11.32;;;9.00;99.90;;;;;;4975128;28;20050;-80
2023/05/20 01:41:57;;;;;;;16.33;12.57;;;9.00;99.90;;;;;;4961002;28;20484;-80
2023/05/20 01:44:27;;;;;;;15.95;11.98;;;9.10;99.90;;;;;;4974657;28;20054;-80
2023/05/20 01:47:30;;;;;;;15.13;13.45;;;9.20;99.90;;;;;;4962203;28;20404;-80
2023/05/20 01:50:13;;;;;;;14.55;11.73;;;9.20;99.90;;;;;;4964865;28;20454;-80
2023/05/20 01:52:39;;;;;;;13.63;11.75;;;9.30;99.90;;;;;;4979766;28;20042;-80
2023/05/20 01:55:20;;;;;;;13.25;10.95;;;9.30;99.90;;;;;;4965154;28;20054;-80
2023/05/20 01:57:49;;;;;;;14.02;10.90;;;9.30;99.90;;;;;;4996859;28;20039;-80
2023/05/20 02:00:27;;;;;;;14.35;10.23;;;9.40;99.90;;;;;;4987579;28;20042;-81
2023/05/20 02:03:19;;;;;;;13.32;10.48;;;9.40;99.90;;;;;;4990762;28;20060;-80
2023/05/20 02:05:56;;;;;;;15.20;11.48;;;9.50;99.90;;;;;;4968386;28;20043;-80
2023/05/20 02:08:24;;;;;;;14.55;11.18;;;9.60;99.90;;;;;;4968486;28;20046;-80
2023/05/20 02:10:54;;;;;;;14.52;10.73;;;9.50;99.90;;;;;;4978625;28;20070;-80
2023/05/20 02:13:26;;;;;;;12.07;10.50;;;9.50;99.90;;;;;;4988266;28;20057;-80
2023/05/20 02:15:52;;;;;;;11.23;9.38;;;9.50;99.90;;;;;;4973965;28;20054;-80
2023/05/20 02:18:25;;;;;;;13.18;9.82;;;9.50;99.90;;;;;;5006362;28;20513;-80
2023/05/20 02:21:13;;;;;;;13.13;9.82;;;9.60;99.90;;;;;;4978748;28;20043;-80
2023/05/20 02:23:42;;;;;;;12.93;10.65;;;9.60;99.90;;;;;;4951514;28;20038;-80
2023/05/20 02:26:08;;;;;;;14.38;11.30;;;9.60;99.90;;;;;;4971340;28;20038;-80
2023/05/20 02:29:03;;;;;;;11.73;9.85;;;9.50;99.90;;;;;;4976778;28;20050;-80
2023/05/20 02:31:42;;;;;;;13.90;10.10;;;9.50;99.90;;;;;;4980856;28;20078;-80
2023/05/20 02:34:29;;;;;;;12.00;9.27;;;9.60;99.90;;;;;;4986409;28;20141;-81
2023/05/20 02:37:03;;;;;;;13.00;10.02;;;9.50;99.90;;;;;;4984713;28;20046;-80
2023/05/20 02:39:45;;;;;;;11.50;9.07;;;9.50;99.90;;;;;;4964485;28;20100;-80
2023/05/20 02:42:11;;;;;;;12.45;9.70;;;9.60;99.90;;;;;;4969191;28;20050;-80
2023/05/20 02:44:46;;;;;;;13.68;10.50;;;9.50;99.90;;;;;;4986139;28;20073;-81
2023/05/20 02:47:20;;;;;;;11.40;9.52;;;9.50;99.90;;;;;;4986172;28;20038;-80
2023/05/20 02:49:52;;;;;;;12.35;9.75;;;9.50;99.90;;;;;;4965066;28;20045;-80
2023/05/20 02:52:29;;;;;;;12.90;9.50;;;9.60;99.90;;;;;;4971426;28;20038;-80
2023/05/20 02:55:43;;;;;;;11.43;10.30;;;9.60;99.90;;;;;;4986724;28;20517;-81
2023/05/20 02:58:25;;;;;;;12.35;9.07;;;9.60;99.90;;;;;;4983779;28;20129;-81
2023/05/20 03:01:05;;;;;;;10.48;8.38;;;9.70;99.90;;;;;;4951750;28;20054;-81
2023/05/20 03:03:55;;;;;;;10.45;9.35;;;9.70;99.90;;;;;;4946113;28;20054;-81
2023/05/20 03:06:36;;;;;;;11.25;8.63;;;9.70;99.90;;;;;;4974757;28;20046;-81
2023/05/20 03:09:15;;;;;;;10.35;7.65;;;9.80;99.90;;;;;;4974927;28;20046;-80
2023/05/20 03:11:45;;;;;;;10.55;8.40;;;9.90;99.90;;;;;;4991709;28;20039;-80
2023/05/20 03:17:25;;;;;;;11.65;9.27;;;10.00;99.90;;;;;;5014377;28;20070;-81
2023/05/20 03:20:06;;;;;;;10.80;8.48;;;9.90;99.90;;;;;;4969249;28;20046;-81
2023/05/20 03:22:41;;;;;;;;;;;9.90;99.90;;;;;;4983592;28;20125;-81
2023/05/20 03:25:35;;;;;;;10.80;8.75;;;9.90;99.90;;;;;;4968495;28;19925;-81
2023/05/20 03:28:18;;;;;;;9.85;8.15;;;9.90;99.90;;;;;;4966380;28;20489;-81
2023/05/20 03:31:13;;;;;;;11.43;8.70;;;9.90;99.90;;;;;;4971489;28;20034;-81
2023/05/20 03:33:54;;;;;;;11.40;8.63;;;9.90;99.90;;;;;;4970423;28;20055;-80
2023/05/20 03:36:52;;;;;;;8.48;7.57;;;9.90;99.90;;;;;;4932245;29;20133;-81
2023/05/20 03:39:26;;;;;;;8.50;7.63;;;10.00;99.90;;;;;;4976365;28;20131;-81
2023/05/20 03:42:02;;;;;;;11.15;7.82;;;10.00;99.90;;;;;;4971212;28;20046;-81
2023/05/20 03:44:31;;;;;;;10.63;8.30;;;9.90;99.90;;;;;;4978580;28;20050;-80
2023/05/20 03:47:11;;;;;;;9.73;7.85;;;10.00;99.90;;;;;;4981492;28;20042;-81
2023/05/20 03:49:47;;;;;;;8.90;7.40;;;10.00;99.90;;;;;;4979968;28;20136;-80
2023/05/20 03:52:29;;;;;;;10.48;8.30;;;9.90;99.90;;;;;;4948552;28;20160;-80
2023/05/20 03:55:11;;;;;;;9.18;7.22;;;9.90;99.90;;;;;;4951544;28;20045;-80
2023/05/20 03:57:54;;;;;;;8.18;6.93;;;10.00;99.90;;;;;;4967753;28;20046;-80
2023/05/20 04:00:38;;;;;;;10.30;6.95;;;10.10;99.90;;;;;;4982747;28;20057;-81
2023/05/20 04:03:29;;;;;;;9.93;7.55;;;10.10;99.90;;;;;;4998544;28;20050;-80
2023/05/20 04:06:03;;;;;;;8.50;7.60;;;10.10;99.90;;;;;;4980249;28;20046;-80
2023/05/20 04:08:45;;;;;;;9.00;7.35;;;10.10;99.90;;;;;;4978279;28;20106;-80
2023/05/20 04:11:29;;;;;;;10.02;7.70;;;10.10;99.90;;;;;;4996089;28;20046;-80
2023/05/20 04:14:09;;;;;;;10.38;6.90;;;10.10;99.90;;;;;;4980721;28;20109;-80
2023/05/20 04:16:42;;;;;;;7.70;6.85;;;10.10;99.90;;;;;;4949705;28;20378;-80
2023/05/20 04:19:27;;;;;;;7.78;6.53;;;10.20;99.90;;;;;;5012669;28;20054;-80
2023/05/20 04:22:10;;;;;;;8.32;6.38;;;10.20;99.90;;;;;;4983153;28;20409;-80
2023/05/20 04:24:55;;;;;;;8.27;6.82;;;10.20;99.90;;;;;;4953054;28;20078;-80
2023/05/20 04:27:29;;;;;;;8.82;6.30;;;10.30;99.90;;;;;;4967451;28;20042;-80
2023/05/20 04:30:03;;;;;;;9.57;6.82;;;10.30;99.90;;;;;;5000659;28;20038;-80
2023/05/20 04:32:33;;;;;;;9.60;6.53;;;10.40;99.90;;;;;;4964558;28;20050;-81
2023/05/20 04:35:17;;;;;;;9.38;6.30;;;10.50;99.90;;;;;;4988585;28;20050;-80
2023/05/20 04:38:03;;;;;;;7.28;5.95;;;10.70;99.90;;;;;;4967685;28;20478;-80
2023/05/20 04:40:57;;;;;;;9.52;5.82;;;11.00;99.90;;;;;;4978164;28;20106;-80
2023/05/20 04:43:32;;;;;;;7.85;5.32;;;11.40;99.90;;;;;;4977637;28;20129;-81
2023/05/20 04:46:04;;;;;;;7.82;5.07;;;11.80;99.90;;;;;;4943699;28;20083;-81
2023/05/20 04:48:39;;;;;;;6.90;4.72;;;12.20;99.90;;;;;;4978281;28;20077;-81
2023/05/20 04:51:13;;;;;;;7.38;4.85;;;12.50;99.90;;;;;;4979377;28;20038;-81
2023/05/20 04:54:06;;;;;;;6.85;4.63;;;12.80;99.90;;;;;;4969368;28;20081;-81
2023/05/20 04:56:35;;;;;;;5.72;4.32;;;13.10;99.90;;;;;;4964208;28;20039;-80
2023/05/20 04:59:32;;;;;;;7.10;4.72;;;13.30;99.90;;;;;;4933398;28;20043;-81
2023/05/20 05:02:18;;;;;;;6.15;3.92;;;13.50;99.90;;;;;;4998147;28;20121;-81
2023/05/20 05:04:59;;;;;;;6.57;4.43;;;13.80;99.90;;;;;;4966917;28;20043;-81
2023/05/20 05:07:55;;;;;;;6.05;4.05;;;14.10;99.90;;;;;;4952608;28;20039;-80
2023/05/20 05:10:46;;;;;;;7.07;4.45;;;14.50;99.90;;;;;;4992837;28;20070;-80
2023/05/20 05:13:19;;;;;;;6.55;4.30;;;14.80;99.90;;;;;;4965370;28;20050;-81
2023/05/20 05:16:05;;;;;;;7.07;3.70;;;14.90;99.90;;;;;;4958304;28;20561;-81
2023/05/20 05:18:51;;;;;;;6.10;3.50;;;15.10;99.90;;;;;;4994414;28;20094;-81
2023/05/20 05:21:23;;;;;;;5.72;3.33;;;15.50;99.90;;;;;;4938920;28;20137;-80
2023/05/20 05:24:05;;;;;;;7.47;3.33;;;15.60;99.90;;;;;;4966204;28;20507;-81
2023/05/20 05:26:52;;;;;;;4.78;3.10;;;15.60;99.90;;;;;;4958246;28;20046;-80
2023/05/20 05:29:40;;;;;;;4.88;2.90;;;15.80;99.90;;;;;;4981342;28;20074;-81
2023/05/20 05:32:12;;;;;;;4.00;2.55;;;16.00;99.90;;;;;;4986095;28;20038;-79
2023/05/20 05:35:12;;;;;;;5.65;3.08;;;16.10;97.90;;;;;;4978521;28;20042;-80
2023/05/20 05:37:49;;;;;;;4.85;3.05;;;16.20;93.10;;;;;;4975883;28;20072;-80
2023/05/20 05:40:32;;;;;;;5.55;3.13;;;15.90;94.90;;;;;;4976872;28;20038;-80
2023/05/20 05:43:01;;;;;;;5.93;2.78;;;15.90;98.30;;;;;;4963280;28;20042;-80
2023/05/20 05:45:28;;;;;;;5.30;2.97;;;15.70;98.40;;;;;;4980972;28;20440;-80
2023/05/20 05:48:32;;;;;;;6.60;3.10;;;15.30;99.90;;;;;;5004483;28;20034;-82
2023/05/20 05:51:42;;;;;;;5.05;3.05;;;15.10;99.90;;;;;;4986804;28;20480;-83
2023/05/20 05:54:52;;;;;;;6.15;2.90;;;14.70;99.90;;;;;;4984841;28;20531;-84
2023/05/20 06:01:30;;;;;;;4.05;2.90;;;14.10;99.90;;;;;;5019738;22;20078;-85
2023/05/20 06:05:00;;;;;;;4.78;2.90;;;13.90;99.90;;;;;;5053389;28;20055;-83
2023/05/20 06:08:07;;;;;;;;;;;;;;;;;;;;;
2023/05/20 06:10:45;;;;;;;4.25;2.90;;;13.70;99.90;;;;;;5044258;28;20532;-80
2023/05/20 06:13:28;;;;;;;8.90;3.30;;;13.70;99.90;;;;;;5036222;28;20041;-81
2023/05/20 06:15:57;;;;;;;11.60;4.10;;;13.60;99.90;;;;;;5046066;23;20396;-80
2023/05/20 06:18:22;;;;;;;4.57;3.30;;;13.60;99.90;;;;;;5013909;28;20040;-81
2023/05/20 06:20:57;;;;;;;4.57;3.05;;;13.70;99.90;;;;;;5013101;28;20451;-80
2023/05/20 06:23:22;;;;;;;4.63;3.10;;;13.70;99.90;;;;;;4995341;28;20129;-80
2023/05/20 06:25:49;;;;;;;4.15;3.03;;;13.80;99.90;;;;;;5008015;28;20296;-80
2023/05/20 06:28:14;;;;;;;4.20;2.80;;;13.70;99.90;;;;;;4993604;28;20138;-81
2023/05/20 06:30:40;;;;;;;4.35;2.83;;;13.80;99.90;;;;;;4993802;28;20462;-81
2023/05/20 06:33:06;;;;;;;4.93;2.97;;;13.80;99.90;;;;;;4979904;28;20558;-80
2023/05/20 06:35:33;;;;;;;5.20;2.85;;;13.80;99.90;;;;;;4977866;28;20062;-81
2023/05/20 06:38:00;;;;;;;5.40;2.80;;;13.80;99.90;;;;;;4993752;28;20068;-80
2023/05/20 06:40:29;;;;;;;4.70;3.13;;;13.90;99.90;;;;;;4992887;28;20121;-82
2023/05/20 06:42:54;;;;;;;6.88;3.25;;;13.90;99.90;;;;;;4974736;28;20133;-80
2023/05/20 06:45:20;;;;;;;4.70;2.83;;;14.00;99.90;;;;;;4992601;28;20117;-82
2023/05/20 06:47:47;;;;;;;4.30;2.85;;;14.00;99.90;;;;;;4993066;28;20085;-82
2023/05/20 06:50:13;;;;;;;5.28;3.33;;;14.10;99.90;;;;;;4977434;28;20042;-81
2023/05/20 06:52:39;;;;;;;5.40;3.08;;;14.20;99.90;;;;;;4976384;28;20038;-82
2023/05/20 06:55:05;;;;;;;4.53;2.78;;;14.20;99.90;;;;;;4975826;28;20429;-81
2023/05/20 06:57:31;;;;;;;6.50;3.10;;;14.30;99.90;;;;;;4988716;28;20487;-81
2023/05/20 06:59:56;;;;;;;4.25;3.17;;;14.40;99.90;;;;;;4974018;28;20070;-81
2023/05/20 07:02:22;;;;;;;4.45;2.85;;;14.40;99.90;;;;;;4973815;28;20046;-82
2023/05/20 07:04:48;;;;;;;5.22;3.00;;;14.40;99.90;;;;;;4957890;28;20043;-81
2023/05/20 07:07:14;;;;;;;6.13;2.83;;;14.50;99.90;;;;;;4957693;28;20063;-81
2023/05/20 07:09:39;;;;;;;6.22;3.30;;;14.60;99.90;;;;;;4963842;28;20041;-81
2023/05/20 07:12:05;;;;;;;6.60;3.30;;;14.60;99.90;;;;;;4963597;28;20497;-82
2023/05/20 07:14:31;;;;;;;5.03;3.40;;;14.70;99.90;;;;;;4973929;28;20046;-81
2023/05/20 07:16:56;;;;;;;3.63;2.88;;;14.70;99.90;;;;;;4970498;28;20042;-82
2023/05/20 07:19:22;;;;;;;5.35;3.13;;;14.80;99.90;;;;;;4965284;28;20034;-81
2023/05/20 07:21:48;;;;;;;4.30;3.15;;;14.90;99.90;;;;;;4957609;28;20043;-81
2023/05/20 07:24:15;;;;;;;3.72;3.05;;;15.00;99.90;;;;;;4989096;28;20042;-82
2023/05/20 07:26:40;;;;;;;5.93;3.88;;;15.10;99.90;;;;;;4962966;28;20046;-82
2023/05/20 07:29:06;;;;;;;4.53;3.30;;;15.20;99.90;;;;;;4967263;28;20045;-82
2023/05/20 07:31:32;;;;;;;4.13;2.90;;;15.30;99.90;;;;;;4974854;28;20500;-81
2023/05/20 07:33:57;;;;;;;4.97;2.85;;;15.40;99.90;;;;;;4974689;28;20493;-82
2023/05/20 07:36:25;;;;;;;5.82;3.22;;;15.50;99.90;;;;;;4976442;28;20174;-82
2023/05/20 07:38:50;;;;;;;3.90;3.25;;;15.60;96.70;;;;;;4978396;28;20065;-82
2023/05/20 07:41:16;;;;;;;5.95;3.35;;;15.80;97.60;;;;;;4984635;28;20042;-83
2023/05/20 07:43:41;;;;;;;4.97;3.03;;;16.10;98.20;;;;;;4991774;28;20135;-78
2023/05/20 07:46:07;;;;;;;4.88;2.72;;;16.40;93.10;;;;;;4978893;28;20490;-79
2023/05/20 07:48:32;;;;;;;5.10;3.38;;;16.70;87.10;;;;;;4974948;28;20039;-80
2023/05/20 07:50:58;;;;;;;4.75;2.88;;;16.80;84.70;;;;;;4972990;28;20038;-80
2023/05/20 07:53:24;;;;;;;4.70;3.30;;;16.90;83.70;;;;;;4975598;28;20038;-80
2023/05/20 07:55:50;;;;;;;5.88;3.22;;;17.20;80.40;;;;;;4984336;28;20043;-81
2023/05/20 07:58:16;;;;;;;5.55;3.17;;;17.40;80.10;;;;;;4957220;28;20097;-80
2023/05/20 08:00:43;;;;;;;5.30;2.63;;;17.90;77.40;;;;;;4957058;28;20038;-80
2023/05/20 08:03:08;;;;;;;3.58;2.90;;;18.40;71.30;;;;;;4979945;28;20052;-81
2023/05/20 08:05:37;;;;;;;4.53;2.95;;;18.40;73.70;;;;;;4970955;28;20113;-80
2023/05/20 08:08:03;;;;;;;4.75;3.05;;;18.80;70.00;;;;;;4956710;28;20043;-80
2023/05/20 08:10:29;;;;;;;4.50;2.70;;;19.10;68.90;;;;;;4973081;28;20043;-80
2023/05/20 08:12:55;;;;;;;3.72;2.80;;;19.40;69.80;;;;;;4972873;28;20162;-80
2023/05/20 08:15:20;;;;;;;3.58;2.90;;;19.90;68.30;;;;;;4983725;28;20074;-80
2023/05/20 08:17:46;;;;;;;3.90;3.08;;;20.40;66.40;;;;;;4986660;28;20062;-80
2023/05/20 08:20:12;;;;;;;4.05;2.70;;;20.80;63.20;;;;;;4976254;28;20057;-80
2023/05/20 08:22:38;;;;;;;4.88;2.85;;;20.90;63.80;;;;;;4975177;28;20045;-81
2023/05/20 08:25:06;;;;;;;4.60;2.70;;;21.00;61.80;;;;;;4966607;28;20149;-80
2023/05/20 08:27:32;;;;;;;4.32;3.15;;;21.10;61.60;;;;;;4972248;28;20043;-80
2023/05/20 08:29:58;;;;;;;5.05;3.63;;;21.20;59.40;;;;;;4956487;28;20042;-80
2023/05/20 08:32:23;;;;;;;5.03;2.63;;;21.10;60.10;;;;;;4982362;28;20089;-80
2023/05/20 08:34:49;;;;;;;5.47;2.80;;;21.10;59.40;;;;;;4975630;28;20065;-80
2023/05/20 08:37:15;;;;;;;4.97;3.10;;;21.10;60.00;;;;;;4990846;28;20564;-80
2023/05/20 08:39:41;;;;;;;6.88;3.22;;;21.10;59.40;;;;;;4974926;28;20049;-80
2023/05/20 08:42:10;;;;;;;5.78;3.33;;;21.10;59.40;;;;;;4992519;28;20062;-80
2023/05/20 08:44:36;;;;;;;4.32;3.05;;;21.10;58.60;;;;;;4991590;28;20056;-79
2023/05/20 08:47:03;;;;;;;4.70;3.13;;;21.10;58.20;;;;;;4991427;28;20399;-80
2023/05/20 08:49:30;;;;;;;6.75;3.10;;;21.00;59.90;;;;;;4975733;28;20125;-80
2023/05/20 08:51:56;;;;;;;4.90;2.70;;;21.10;59.90;;;;;;4974840;28;20137;-81
2023/05/20 08:54:23;;;;;;;5.85;2.53;;;21.20;60.50;;;;;;4983673;28;20054;-80
2023/05/20 08:56:48;;;;;;;4.05;2.70;;;21.40;58.90;;;;;;4975127;28;20048;-80
2023/05/20 08:59:16;;;;;;;6.90;2.63;;;21.50;57.10;;;;;;4975323;28;20156;-80
2023/05/20 09:01:42;;;;;;;4.25;2.92;;;21.60;57.00;;;;;;4975525;28;20058;-80
2023/05/20 09:04:08;;;;;;;4.07;2.67;;;21.40;56.80;;;;;;4991604;28;20042;-80
2023/05/20 09:06:46;;;;;;;4.57;2.70;;;21.20;57.30;;;;;;4991064;28;20030;-80
2023/05/20 09:09:13;;;;;;;5.25;2.55;;;21.20;58.60;;;;;;4987848;28;20038;-80
2023/05/20 09:11:42;;;;;;;5.38;2.88;;;21.30;59.00;;;;;;4978567;28;20042;-79
2023/05/20 09:14:08;;;;;;;5.65;2.80;;;21.70;56.10;;;;;;4978807;28;20109;-80
2023/05/20 09:16:34;;;;;;;3.80;2.28;;;21.50;56.00;;;;;;4970097;28;20034;-80
2023/05/20 09:19:00;;;;;;;3.35;2.58;;;21.40;56.30;;;;;;4989618;28;20121;-80
2023/05/20 09:21:29;;;;;;;4.78;2.60;;;21.40;56.70;;;;;;4978497;28;20039;-79
2023/05/20 09:23:56;;;;;;;3.83;2.40;;;21.50;57.30;;;;;;4962381;28;20034;-80
2023/05/20 09:26:23;;;;;;;5.90;2.53;;;21.50;56.70;;;;;;4978321;28;20043;-80
2023/05/20 09:28:49;;;;;;;3.55;2.80;;;21.60;58.10;;;;;;4978467;28;20039;-79
2023/05/20 09:31:15;;;;;;;4.60;2.47;;;22.00;55.00;;;;;;4990599;28;20042;-80
2023/05/20 09:33:41;;;;;;;5.07;2.60;;;21.80;56.30;;;;;;4977549;28;20034;-80
2023/05/20 09:36:08;;;;;;;6.05;2.80;;;21.60;56.30;;;;;;4995944;28;20070;-80
2023/05/20 09:38:38;;;;;;;4.65;2.58;;;21.20;57.70;;;;;;4981641;28;20073;-80
2023/05/20 09:41:09;;;;;;;3.72;2.45;;;21.20;57.50;;;;;;4981602;28;20042;-80
2023/05/20 09:43:35;;;;;;;3.65;2.35;;;21.10;56.90;;;;;;4996050;28;20050;-80
2023/05/20 09:46:03;;;;;;;2.75;2.42;;;21.00;57.10;;;;;;4996249;28;20045;-80
2023/05/20 09:48:29;;;;;;;3.33;1.90;;;21.00;56.10;;;;;;4980185;28;20436;-80
2023/05/20 09:50:56;;;;;;;6.22;2.30;;;20.90;57.90;;;;;;4996942;28;20063;-80
2023/05/20 09:53:25;;;;;;;3.05;2.35;;;21.20;54.70;;;;;;4973200;28;20045;-79
2023/05/20 09:55:51;;;;;;;4.95;2.75;;;21.50;55.50;;;;;;4996188;28;20116;-81
2023/05/20 09:58:19;;;;;;;4.45;2.50;;;21.70;55.00;;;;;;4979564;28;20496;-81
2023/05/20 10:00:45;;;;;;;4.32;2.63;;;21.50;55.90;;;;;;4979451;28;20500;-81
2023/05/20 10:03:11;;;;;;;5.20;2.45;;;21.90;55.50;;;;;;4995108;28;20049;-81
2023/05/20 10:05:42;;;;;;;6.07;2.60;;;22.10;54.60;;;;;;4996356;28;20125;-81
2023/05/20 10:08:20;;;;;;;6.90;2.60;;;21.90;53.90;;;;;;4989280;28;20038;-79
2023/05/20 10:11:17;;;;;;;3.17;2.53;;;21.50;54.80;;;;;;4981490;28;20117;-80
2023/05/20 10:14:07;;;;;;;4.90;2.30;;;21.60;53.60;;;;;;4996324;28;20071;-77
2023/05/20 10:16:52;;;;;;;6.82;2.83;;;21.60;53.90;;;;;;4999381;28;20049;-82
2023/05/20 10:19:33;;;;;;;5.22;2.38;;;21.60;54.00;;;;;;5009111;28;20550;-78
2023/05/20 10:22:09;;;;;;;4.63;2.53;;;21.90;54.50;;;;;;4994570;28;20046;-78
2023/05/20 10:24:37;;;;;;;3.47;2.30;;;22.00;55.00;;;;;;4994234;28;20058;-78
2023/05/20 10:27:06;;;;;;;3.67;2.58;;;22.20;53.70;;;;;;4985540;28;20043;-79
2023/05/20 10:29:49;;;;;;;3.80;2.20;;;22.40;53.60;;;;;;4992739;28;20527;-77
2023/05/20 10:32:26;;;;;;;4.13;2.50;;;22.60;53.10;;;;;;4990563;28;20440;-78
2023/05/20 10:34:51;;;;;;;5.97;2.50;;;22.40;52.80;;;;;;4990393;28;20046;-77
2023/05/20 10:37:24;;;;;;;5.18;2.50;;;21.90;54.10;;;;;;4993777;28;20488;-77
2023/05/20 10:39:50;;;;;;;3.80;2.50;;;21.80;53.30;;;;;;4992358;28;20042;-77
2023/05/20 10:42:15;;;;;;;4.85;2.45;;;21.50;53.70;;;;;;4967197;28;20386;-80
2023/05/20 10:44:45;;;;;;;4.75;2.60;;;21.50;54.20;;;;;;4974970;28;20035;-78
2023/05/20 10:47:11;;;;;;;3.42;2.25;;;21.60;54.10;;;;;;4990768;28;20030;-77
2023/05/20 10:49:46;;;;;;;5.15;2.70;;;21.60;54.00;;;;;;4988076;28;20492;-78
2023/05/20 10:52:13;;;;;;;3.90;2.42;;;21.20;55.40;;;;;;4975632;28;20050;-78
2023/05/20 10:54:46;;;;;;;4.88;2.63;;;21.10;55.40;;;;;;4980158;28;20045;-78
2023/05/20 10:57:11;;;;;;;;;;;21.10;55.70;;;;;;4985608;28;20039;-76
2023/05/20 10:59:37;;;;;;;3.17;2.25;;;21.30;55.00;;;;;;4974961;28;19918;-78
2023/05/20 11:02:03;;;;;;;3.08;2.42;;;21.40;55.00;;;;;;4985847;28;20045;-78
2023/05/20 11:04:29;;;;;;;3.78;2.75;;;21.80;55.60;;;;;;4961955;28;20054;-78
2023/05/20 11:06:55;;;;;;;3.63;2.67;;;21.80;54.50;;;;;;4984869;28;20556;-78
2023/05/20 11:09:22;;;;;;;4.82;2.40;;;21.90;54.60;;;;;;4973460;28;20122;-79
2023/05/20 11:11:49;;;;;;;4.07;2.72;;;22.40;53.50;;;;;;4988060;28;20030;-79
2023/05/20 11:14:16;;;;;;;3.65;2.20;;;22.80;53.80;;;;;;4974853;28;20073;-80
2023/05/20 11:16:41;;;;;;;5.50;2.88;;;22.90;54.40;;;;;;4992827;28;20054;-80
2023/05/20 11:19:08;;;;;;;4.70;2.60;;;22.60;53.70;;;;;;4991042;28;20080;-78
2023/05/20 11:21:34;;;;;;;4.93;2.35;;;22.00;53.40;;;;;;4973850;28;20512;-80
2023/05/20 11:23:59;;;;;;;3.45;2.50;;;21.50;54.60;;;;;;4973077;28;20034;-80
2023/05/20 11:26:25;;;;;;;4.38;2.40;;;21.20;56.10;;;;;;4975116;28;20397;-78
2023/05/20 11:28:51;;;;;;;5.25;2.22;;;21.60;56.30;;;;;;4976338;28;20042;-79
2023/05/20 11:31:17;;;;;;;4.63;2.50;;;22.10;54.70;;;;;;4993053;28;20058;-77
2023/05/20 11:33:43;;;;;;;6.00;2.20;;;22.20;54.10;;;;;;4976252;28;20050;-79
2023/05/20 11:36:10;;;;;;;3.90;2.50;;;22.20;53.00;;;;;;4984045;28;20049;-79
2023/05/20 11:38:35;;;;;;;3.50;2.08;;;21.90;54.10;;;;;;4975798;28;20034;-79
2023/05/20 11:41:01;;;;;;;3.00;2.10;;;21.70;55.50;;;;;;4971628;28;20412;-79
2023/05/20 11:43:26;;;;;;;3.22;2.30;;;21.70;55.50;;;;;;4990761;28;20046;-80
2023/05/20 11:45:59;;;;;;;4.45;2.22;;;21.80;54.50;;;;;;4974304;28;20050;-77
2023/05/20 11:48:25;;;;;;;;;;;22.00;53.60;;;;;;4973740;28;20120;-78
2023/05/20 11:50:53;;;;;;;3.60;2.20;;;22.40;53.90;;;;;;4988715;28;20384;-80
2023/05/20 11:53:20;;;;;;;3.28;1.92;;;22.80;54.70;;;;;;4973765;28;20409;-78
2023/05/20 11:55:54;;;;;;;3.80;2.00;;;23.30;51.60;;;;;;4970833;28;20137;-78
2023/05/20 11:58:30;;;;;;;4.00;2.10;;;23.40;53.20;;;;;;4975664;28;20662;-79
2023/05/20 12:00:56;;;;;;;3.22;2.30;;;23.40;50.70;;;;;;4969720;28;20054;-79
2023/05/20 12:03:21;;;;;;;4.35;2.53;;;23.10;50.80;;;;;;4968186;28;20058;-80
2023/05/20 12:05:49;;;;;;;3.03;1.95;;;22.90;51.70;;;;;;4972521;28;20489;-79
2023/05/20 12:08:15;;;;;;;3.25;1.95;;;23.00;52.60;;;;;;4992086;28;20046;-79
2023/05/20 12:10:40;;;;;;;3.25;2.40;;;23.30;51.00;;;;;;4970148;28;20122;-79
2023/05/20 12:13:10;;;;;;;4.55;2.28;;;23.10;51.10;;;;;;4989632;28;20085;-80
2023/05/20 12:15:36;;;;;;;3.17;2.20;;;23.10;51.40;;;;;;4975724;28;20034;-79
2023/05/20 12:18:02;;;;;;;4.00;1.90;;;23.30;50.70;;;;;;5046882;22;20042;-80
2023/05/20 12:20:35;;;;;;;3.47;2.13;;;23.30;51.30;;;;;;4995012;28;20124;-81
2023/05/20 12:23:02;;;;;;;3.70;1.80;;;23.00;51.30;;;;;;4996919;28;20037;-80
2023/05/20 12:25:28;;;;;;;4.55;2.03;;;22.50;52.00;;;;;;4995463;28;20046;-80
2023/05/20 12:28:01;;;;;;;2.42;2.03;;;22.10;52.90;;;;;;4978061;28;20089;-80
2023/05/20 12:30:28;;;;;;;4.53;2.45;;;22.00;53.60;;;;;;4975830;28;20088;-80
2023/05/20 12:32:57;;;;;;;6.65;2.78;;;22.20;52.70;;;;;;4971479;28;20066;-82
2023/05/20 12:35:34;;;;;;;5.45;2.13;;;22.40;53.20;;;;;;4971973;28;20047;-80
2023/05/20 12:38:01;;;;;;;4.72;2.40;;;22.50;53.00;;;;;;4973151;28;20532;-78
2023/05/20 12:40:26;;;;;;;4.43;2.20;;;22.60;52.40;;;;;;4974606;28;20043;-79
2023/05/20 12:42:57;;;;;;;4.30;2.20;;;22.20;53.40;;;;;;4975403;28;20053;-81
2023/05/20 12:45:25;;;;;;;4.53;2.20;;;21.80;54.40;;;;;;4963351;28;20129;-79
2023/05/20 12:47:51;;;;;;;3.38;2.28;;;21.60;54.50;;;;;;4967803;28;20101;-78
2023/05/20 12:50:17;;;;;;;2.85;2.30;;;21.80;54.20;;;;;;4956526;28;20038;-81
2023/05/20 12:52:43;;;;;;;5.30;2.17;;;21.80;53.50;;;;;;4973262;28;20042;-79
2023/05/20 12:55:12;;;;;;;2.90;2.38;;;22.10;53.80;;;;;;4974912;28;20222;-79
2023/05/20 12:57:45;;;;;;;3.03;2.20;;;22.70;53.30;;;;;;4962683;28;20073;-80
2023/05/20 13:00:12;;;;;;;4.20;2.15;;;22.90;53.10;;;;;;4957656;28;20096;-80
2023/05/20 13:02:40;;;;;;;5.05;2.60;;;23.30;52.60;;;;;;4959800;28;20035;-80
2023/05/20 13:05:09;;;;;;;3.88;2.10;;;24.00;51.90;;;;;;4975005;28;20044;-81
2023/05/20 13:07:34;;;;;;;4.63;2.30;;;23.60;52.20;;;;;;4967518;28;20034;-79
2023/05/20 13:10:00;;;;;;;2.75;2.00;;;23.10;53.20;;;;;;4974672;28;20038;-80
2023/05/20 13:12:29;;;;;;;3.10;2.40;;;23.00;52.60;;;;;;4975533;28;20045;-79
2023/05/20 13:14:55;;;;;;;5.47;2.50;;;23.10;53.40;;;;;;4976252;28;20129;-80
2023/05/20 13:17:20;;;;;;;2.22;1.90;;;23.30;52.40;;;;;;4973950;28;20126;-79
2023/05/20 13:19:46;;;;;;;2.70;2.00;;;23.00;52.00;;;;;;4975020;28;20425;-81
2023/05/20 13:22:15;;;;;;;3.25;2.30;;;23.10;52.80;;;;;;4975009;28;20042;-81
2023/05/20 13:24:43;;;;;;;3.67;2.20;;;22.90;52.20;;;;;;4975514;28;20034;-80